createdAt,value
2023-04-24T01:45:52.079Z,82.96
2023-04-24T02:32:52.825Z,80.75
2023-04-24T02:36:05.588Z,79.03
2023-04-24T02:39:18.465Z,80.39
2023-04-24T02:42:30.861Z,79.73
2023-04-24T02:45:43.197Z,83.50
2023-04-24T02:54:55.569Z,81.95
2023-04-24T02:58:07.820Z,81.05
2023-04-24T03:01:20.012Z,80.78
2023-04-24T03:10:33.530Z,80.92
2023-04-24T03:13:47.137Z,78.90
2023-04-24T03:17:00.073Z,79.74
2023-04-24T03:20:15.817Z,77.32
2023-04-24T03:23:28.778Z,78.90
2023-04-24T03:26:41.303Z,79.54
2023-04-24T03:29:57.203Z,84.88
2023-04-24T03:33:14.922Z,87.44
2023-04-24T03:36:29.007Z,83.56
2023-04-24T03:39:41.826Z,89.17
2023-04-24T03:42:54.841Z,86.20
2023-04-24T03:46:08.200Z,86.04
2023-04-24T03:49:22.312Z,89.07
2023-04-24T03:58:35.065Z,88.03
2023-04-24T04:01:47.818Z,88.86
2023-04-24T04:05:01.873Z,90.77
2023-04-24T04:11:14.367Z,91.92
2023-04-24T04:14:26.396Z,89.44
2023-04-24T04:17:39.338Z,88.57
2023-04-24T04:20:52.043Z,90.81
2023-04-24T04:24:04.226Z,89.95
2023-04-24T04:27:19.911Z,91.35
2023-04-24T04:30:34.857Z,91.00
2023-04-24T04:33:48.721Z,91.66
2023-04-24T04:37:02.386Z,90.53
2023-04-24T04:40:19.893Z,90.86
2023-04-24T04:43:34.045Z,89.98
2023-04-24T04:46:46.353Z,89.38
2023-04-24T04:50:04.977Z,88.01
2023-04-24T04:53:17.942Z,90.16
2023-04-24T04:56:31.019Z,90.31
2023-04-24T04:59:45.333Z,88.11
2023-04-24T05:03:09.379Z,86.15
2023-04-24T05:06:16.507Z,86.47
2023-04-24T05:09:30.640Z,86.59
2023-04-24T05:12:46.235Z,84.25
2023-04-24T05:15:59.319Z,83.36
2023-04-24T05:19:13.121Z,82.03
2023-04-24T05:22:26.538Z,81.36
2023-04-24T05:25:40.690Z,82.24
2023-04-24T05:28:55.262Z,80.95
2023-04-24T05:32:07.974Z,82.93
2023-04-24T05:35:20.492Z,81.49
2023-04-24T05:38:32.714Z,80.04
2023-04-24T05:41:46.094Z,79.15
2023-04-24T05:44:58.846Z,79.46
2023-04-24T05:48:12.909Z,76.70
2023-04-24T05:51:24.895Z,77.26
2023-04-24T05:54:37.005Z,78.20
2023-04-24T05:57:49.276Z,77.36
2023-04-24T06:01:03.884Z,77.96
2023-04-24T06:04:16.933Z,74.35
2023-04-24T06:07:29.411Z,71.94
2023-04-24T06:10:42.656Z,70.80
2023-04-24T06:13:55.710Z,69.62
2023-04-24T06:17:18.926Z,67.08
2023-04-24T06:20:32.202Z,65.46
2023-04-24T06:23:44.277Z,64.47
2023-04-24T06:26:58.010Z,60.55
2023-04-24T06:30:13.332Z,57.53
2023-04-24T06:33:25.937Z,58.35
2023-04-24T06:36:39.689Z,55.33
2023-04-24T06:39:51.687Z,57.08
2023-04-24T06:43:04.252Z,54.82
2023-04-24T06:46:16.866Z,54.67
2023-04-24T06:49:29.097Z,52.53
2023-04-24T06:52:43.349Z,51.94
2023-04-24T06:55:56.182Z,52.92
2023-04-24T06:59:08.576Z,51.04
2023-04-24T07:02:21.388Z,50.47
2023-04-24T07:05:35.553Z,49.91
2023-04-24T07:08:49.079Z,49.60
2023-04-24T07:12:01.916Z,47.39
2023-04-24T07:15:17.486Z,46.61
2023-04-24T07:18:30.049Z,44.74
2023-04-24T07:21:42.631Z,43.47
2023-04-24T07:24:54.945Z,42.31
2023-04-24T07:28:07.477Z,41.27
2023-04-24T07:31:20.803Z,38.61
2023-04-24T07:34:33.421Z,37.35
2023-04-24T07:37:47.079Z,32.77
2023-04-24T07:40:59.172Z,33.13
2023-04-24T07:44:11.646Z,32.24
2023-04-24T07:47:24.590Z,32.00
2023-04-24T07:50:37.612Z,32.01
2023-04-24T07:53:50.491Z,32.00
2023-04-24T07:57:03.045Z,32.59
2023-04-24T08:00:19.196Z,32.69
2023-04-24T08:03:31.627Z,32.07
2023-04-24T08:06:43.964Z,31.76
2023-04-24T08:09:56.489Z,31.14
2023-04-24T08:13:08.614Z,31.51
2023-04-24T08:16:21.048Z,31.10
2023-04-24T08:19:33.404Z,30.76
2023-04-24T08:22:47.787Z,32.88
2023-04-24T08:25:59.971Z,30.42
2023-04-24T08:29:14.782Z,31.17
2023-04-24T08:32:29.307Z,29.90
2023-04-24T08:35:41.706Z,29.55
2023-04-24T08:38:54.110Z,30.96
2023-04-24T08:42:09.364Z,32.00
2023-04-24T08:45:22.723Z,32.04
2023-04-24T08:48:35.874Z,32.63
2023-04-24T08:51:49.212Z,31.39
2023-04-24T08:55:04.069Z,28.21
2023-04-24T08:58:16.404Z,28.91
2023-04-24T09:01:31.360Z,29.45
2023-04-24T09:04:45.398Z,30.37
2023-04-24T09:08:01.828Z,28.34
2023-04-24T09:11:15.038Z,30.07
2023-04-24T09:14:28.011Z,30.21
2023-04-24T09:17:41.209Z,28.67
2023-04-24T09:21:12.400Z,29.04
2023-04-24T09:24:27.582Z,29.78
2023-04-24T09:27:40.880Z,30.41
2023-04-24T09:30:53.002Z,28.19
2023-04-24T09:34:08.673Z,26.38
2023-04-24T09:37:40.199Z,27.13
2023-04-24T09:40:52.842Z,25.97
2023-04-24T09:44:10.786Z,25.18
2023-04-24T09:47:23.319Z,25.10
2023-04-24T09:50:37.695Z,25.76
2023-04-24T09:53:54.189Z,24.59
2023-04-24T09:57:07.905Z,24.01
2023-04-24T10:00:26.421Z,24.28
2023-04-24T10:03:41.840Z,24.57
2023-04-24T10:06:56.576Z,24.56
2023-04-24T10:10:09.426Z,24.65
2023-04-24T10:13:22.618Z,23.63
2023-04-24T10:16:35.618Z,25.76
2023-04-24T10:19:50.355Z,24.29
2023-04-24T10:23:03.557Z,25.77
2023-04-24T10:26:18.230Z,27.62
2023-04-24T10:29:31.152Z,26.00
2023-04-24T10:32:44.097Z,28.73
2023-04-24T10:35:59.645Z,25.84
2023-04-24T10:39:17.608Z,26.33
2023-04-24T10:42:29.917Z,27.01
2023-04-24T10:45:42.269Z,31.19
2023-04-24T10:49:03.418Z,28.24
2023-04-24T10:52:17.938Z,30.20
2023-04-24T10:55:54.428Z,28.57
2023-04-24T10:59:06.990Z,26.68
2023-04-24T11:02:21.718Z,26.04
2023-04-24T11:06:06.416Z,27.52
2023-04-24T11:09:22.347Z,28.43
2023-04-24T11:12:37.122Z,28.34
2023-04-24T11:15:51.637Z,30.20
2023-04-24T11:19:12.528Z,29.69
2023-04-24T11:22:25.765Z,29.62
2023-04-24T11:25:39.724Z,29.00
2023-04-24T11:28:56.262Z,30.41
2023-04-24T11:32:27.085Z,34.67
2023-04-24T11:35:46.604Z,33.91
2023-04-24T11:38:59.148Z,30.14
2023-04-24T11:42:13.882Z,31.71
2023-04-24T11:45:29.948Z,30.95
2023-04-24T11:48:45.716Z,29.92
2023-04-24T11:52:01.900Z,31.33
2023-04-24T11:55:30.300Z,31.15
2023-04-24T11:58:46.296Z,29.23
2023-04-24T12:01:58.807Z,29.56
2023-04-24T12:05:13.161Z,32.40
2023-04-24T12:08:38.329Z,30.86
2023-04-24T12:12:03.540Z,31.96
2023-04-24T12:15:17.980Z,30.64
2023-04-24T12:18:33.143Z,33.56
2023-04-24T12:21:45.191Z,32.41
2023-04-24T12:25:12.338Z,32.84
2023-04-24T12:28:22.659Z,32.88
2023-04-24T12:31:35.999Z,34.53
2023-04-24T12:34:50.330Z,35.37
2023-04-24T12:38:04.789Z,35.50
2023-04-24T12:41:20.638Z,36.30
2023-04-24T12:44:39.792Z,41.73
2023-04-24T12:47:53.923Z,36.64
2023-04-24T12:51:07.712Z,36.54
2023-04-24T12:54:19.687Z,37.67
2023-04-24T12:57:33.222Z,39.12
2023-04-24T13:00:47.104Z,42.82
2023-04-24T13:03:59.372Z,45.12
2023-04-24T13:07:12.057Z,46.61
2023-04-24T13:10:24.628Z,45.32
2023-04-24T13:13:36.773Z,46.55
2023-04-24T13:16:49.024Z,47.75
2023-04-24T13:20:03.996Z,48.32
2023-04-24T13:23:16.780Z,48.92
2023-04-24T13:26:28.948Z,48.58
2023-04-24T13:29:41.124Z,50.14
2023-04-24T13:32:53.824Z,49.37
2023-04-24T13:36:06.289Z,49.50
2023-04-24T13:39:19.075Z,50.16
2023-04-24T13:42:31.527Z,50.77
2023-04-24T13:45:43.691Z,51.30
2023-04-24T13:48:56.184Z,51.72
2023-04-24T13:52:11.614Z,52.49
2023-04-24T13:55:24.066Z,53.06
2023-04-24T13:58:37.406Z,53.66
2023-04-24T14:01:50.453Z,54.20
2023-04-24T14:05:03.077Z,54.31
2023-04-24T14:08:15.662Z,55.01
2023-04-24T14:11:28.396Z,55.45
2023-04-24T14:14:40.584Z,54.79
2023-04-24T14:17:53.272Z,55.73
2023-04-24T14:21:05.718Z,56.46
2023-04-24T14:24:17.825Z,56.62
2023-04-24T14:27:30.039Z,56.58
2023-04-24T14:30:42.546Z,56.86
2023-04-24T14:33:54.655Z,57.26
2023-04-24T14:37:06.957Z,57.84
2023-04-24T14:40:39.663Z,57.87
2023-04-24T14:43:36.520Z,59.04
2023-04-24T14:46:49.311Z,59.97
2023-04-24T14:50:01.615Z,59.15
2023-04-24T14:53:14.031Z,59.52
2023-04-24T14:56:26.656Z,59.76
2023-04-24T14:59:39.316Z,59.70
2023-04-24T15:02:51.571Z,59.78
2023-04-24T15:06:04.348Z,60.32
2023-04-24T15:09:16.600Z,60.03
2023-04-24T15:12:29.927Z,60.36
2023-04-24T15:15:42.395Z,61.24
2023-04-24T15:18:54.768Z,61.89
2023-04-24T15:22:07.064Z,62.59
2023-04-24T15:25:19.279Z,63.00
2023-04-24T15:28:31.554Z,63.32
2023-04-24T15:31:43.974Z,63.87
2023-04-24T15:35:07.191Z,63.80
2023-04-24T15:38:11.502Z,64.32
2023-04-24T15:41:23.795Z,65.75
2023-04-24T15:44:35.988Z,65.13
2023-04-24T15:47:48.222Z,65.93
2023-04-24T15:51:01.648Z,65.57
2023-04-24T15:54:14.148Z,66.31
2023-04-24T15:57:27.276Z,67.30
2023-04-24T16:00:39.896Z,66.87
2023-04-24T16:03:52.357Z,67.10
2023-04-24T16:07:04.920Z,68.59
2023-04-24T16:10:18.644Z,70.46
2023-04-24T16:13:32.182Z,70.53
2023-04-24T16:16:44.619Z,70.79
2023-04-24T16:19:57.222Z,70.87
2023-04-24T16:23:09.344Z,71.10
2023-04-24T16:26:21.865Z,72.06
2023-04-24T16:29:35.288Z,72.96
2023-04-24T16:32:47.626Z,72.75
2023-04-24T16:36:00.212Z,72.92
2023-04-24T16:39:13.433Z,73.67
2023-04-24T16:42:25.643Z,74.13
2023-04-24T16:45:37.877Z,73.92
2023-04-24T16:48:50.605Z,74.05
2023-04-24T16:52:03.554Z,73.93
2023-04-24T16:55:17.332Z,74.65
2023-04-24T16:58:29.442Z,74.58
2023-04-24T17:01:41.661Z,75.40
2023-04-24T17:04:53.954Z,75.93
2023-04-24T17:08:06.675Z,76.29
2023-04-24T17:11:19.085Z,75.70
2023-04-24T17:14:31.505Z,76.87
2023-04-24T17:17:44.532Z,77.25
2023-04-24T17:20:56.635Z,76.69
2023-04-24T17:24:09.174Z,77.22
2023-04-24T17:27:21.300Z,76.80
2023-04-24T17:30:33.794Z,77.52
2023-04-24T17:33:46.072Z,77.34
2023-04-24T17:36:58.459Z,77.14
2023-04-24T17:40:13.170Z,77.45
2023-04-24T17:43:25.349Z,77.30
2023-04-24T17:46:37.761Z,77.53
2023-04-24T17:49:50.227Z,79.78
2023-04-24T17:53:02.378Z,79.20
2023-04-24T17:56:15.803Z,79.60
2023-04-24T17:59:28.328Z,80.21
2023-04-24T18:02:41.120Z,80.51
2023-04-24T18:05:54.303Z,80.48
2023-04-24T18:09:06.693Z,80.66
2023-04-24T18:12:19.098Z,80.87
2023-04-24T18:15:31.977Z,80.72
2023-04-24T18:18:44.454Z,80.45
2023-04-24T18:21:56.561Z,80.26
2023-04-24T18:25:09.922Z,80.12
2023-04-24T18:28:22.592Z,79.46
2023-04-24T18:31:35.602Z,78.95
2023-04-24T18:34:48.233Z,80.68
2023-04-24T18:38:00.516Z,80.41
2023-04-24T18:41:14.423Z,80.99
2023-04-24T18:44:26.942Z,81.77
2023-04-24T18:47:39.584Z,81.93
2023-04-24T18:50:51.851Z,81.89
2023-04-24T18:54:04.460Z,80.94
2023-04-24T18:57:17.159Z,81.66
2023-04-24T19:00:29.918Z,81.78
2023-04-24T19:03:42.369Z,81.29
2023-04-24T19:06:54.935Z,82.11
2023-04-24T19:10:07.538Z,83.36
2023-04-24T19:13:20.506Z,82.83
2023-04-24T19:16:32.645Z,82.29
2023-04-24T19:19:45.379Z,82.41
2023-04-24T19:22:59.425Z,81.91
2023-04-24T19:26:14.035Z,83.04
2023-04-24T19:29:26.417Z,82.81
2023-04-24T19:32:38.967Z,83.99
2023-04-24T19:35:51.272Z,84.44
2023-04-24T19:39:04.377Z,83.72
2023-04-24T19:42:19.407Z,84.88
2023-04-24T19:45:31.568Z,86.00
2023-04-24T19:48:44.358Z,87.31
2023-04-24T19:51:57.546Z,87.05
2023-04-24T19:55:12.400Z,88.46
2023-04-24T19:58:24.984Z,88.25
2023-04-24T20:01:39.666Z,87.34
2023-04-24T20:04:52.451Z,87.40
2023-04-24T20:08:04.780Z,87.25
2023-04-24T20:11:18.279Z,88.19
2023-04-24T20:14:31.870Z,86.99
2023-04-24T20:17:45.188Z,88.77
2023-04-24T20:21:00.170Z,89.46
2023-04-24T20:24:14.148Z,89.04
2023-04-24T20:27:26.869Z,88.61
2023-04-24T20:30:39.248Z,88.92
2023-04-24T20:33:51.473Z,88.51
2023-04-24T20:37:04.288Z,87.89
2023-04-24T20:40:19.681Z,87.93
2023-04-24T20:43:32.151Z,88.07
2023-04-24T20:46:44.627Z,90.15
2023-04-24T20:49:57.179Z,88.77
2023-04-24T20:53:09.894Z,88.66
2023-04-24T20:56:22.578Z,88.62
2023-04-24T20:59:35.648Z,88.19
2023-04-24T21:02:48.049Z,89.05
2023-04-24T21:06:00.648Z,89.12
2023-04-24T21:09:14.048Z,89.21
2023-04-24T21:12:26.767Z,89.25
2023-04-24T21:15:39.649Z,89.21
2023-04-24T21:18:52.149Z,89.50
2023-04-24T21:22:04.972Z,90.16
2023-04-24T21:25:18.302Z,90.51
2023-04-24T21:28:31.268Z,90.75
2023-04-24T21:31:43.440Z,90.91
2023-04-24T21:34:56.281Z,91.43
2023-04-24T21:38:08.457Z,91.21
2023-04-24T21:41:21.372Z,92.83
2023-04-24T21:44:33.787Z,93.42
2023-04-24T21:47:46.103Z,94.61
2023-04-24T21:50:58.410Z,95.24
2023-04-24T21:54:10.941Z,95.66
2023-04-24T21:57:23.444Z,95.70
2023-04-24T22:00:36.982Z,96.22
2023-04-24T22:03:49.322Z,98.14
2023-04-24T22:07:02.435Z,100.00
2023-04-24T22:10:17.606Z,100.00
2023-04-24T22:13:29.647Z,100.00
2023-04-24T22:16:42.524Z,100.00
2023-04-24T22:19:54.649Z,100.00
2023-04-24T22:23:06.886Z,100.00
2023-04-24T22:26:19.240Z,100.00
2023-04-24T22:29:31.447Z,100.00
2023-04-24T22:32:44.164Z,100.00
2023-04-24T22:35:56.495Z,100.00
2023-04-24T22:39:10.826Z,100.00
2023-04-24T22:42:23.239Z,100.00
2023-04-24T22:45:35.727Z,100.00
2023-04-24T22:48:49.514Z,100.00
2023-04-24T22:52:02.135Z,100.00
2023-04-24T22:55:16.698Z,100.00
2023-04-24T22:58:28.970Z,100.00
2023-04-24T23:01:41.258Z,100.00
2023-04-24T23:04:54.680Z,100.00
2023-04-24T23:08:06.942Z,100.00
2023-04-24T23:11:20.252Z,100.00
2023-04-24T23:14:34.114Z,100.00
2023-04-24T23:17:46.324Z,100.00
2023-04-24T23:20:58.676Z,100.00
2023-04-24T23:24:12.877Z,100.00
2023-04-24T23:27:25.185Z,100.00
2023-04-24T23:30:37.293Z,100.00
2023-04-24T23:33:49.638Z,100.00
2023-04-24T23:37:02.781Z,100.00
2023-04-24T23:40:16.935Z,100.00
2023-04-24T23:43:29.285Z,100.00
2023-04-24T23:46:41.353Z,100.00
2023-04-24T23:49:53.599Z,100.00
2023-04-24T23:53:06.014Z,100.00
2023-04-24T23:56:18.220Z,100.00
2023-04-24T23:59:31.048Z,100.00
